createdAt,value
2017-08-15T00:00:34.407Z,20.4
2017-08-15T00:01:35.196Z,20.4
2017-08-15T00:02:35.868Z,20.3
2017-08-15T00:03:36.629Z,20.4
2017-08-15T00:04:37.373Z,20.4
2017-08-15T00:05:38.158Z,20.4
2017-08-15T00:06:38.897Z,20.3
2017-08-15T00:07:39.617Z,20.4
2017-08-15T00:08:40.385Z,20.4
2017-08-15T00:09:41.066Z,20.4
2017-08-15T00:10:42.140Z,20.4
2017-08-15T00:11:42.846Z,20.4
2017-08-15T00:12:43.582Z,20.4
2017-08-15T00:13:44.325Z,20.4
2017-08-15T00:14:45.101Z,20.3
2017-08-15T00:15:45.820Z,20.4
2017-08-15T00:16:46.547Z,20.3
2017-08-15T00:17:47.306Z,20.3
2017-08-15T00:18:47.975Z,20.3
2017-08-15T00:19:48.681Z,20.3
2017-08-15T00:20:49.577Z,20.3
2017-08-15T00:21:50.259Z,20.3
2017-08-15T00:22:51.006Z,20.2
2017-08-15T00:23:51.819Z,20.2
2017-08-15T00:24:52.491Z,20.2
2017-08-15T00:25:53.275Z,20.1
2017-08-15T00:26:54.013Z,20.1
2017-08-15T00:27:54.771Z,20.1
2017-08-15T00:28:55.472Z,20.0
2017-08-15T00:29:56.203Z,20.0
2017-08-15T00:30:56.956Z,19.9
2017-08-15T00:31:58.023Z,19.9
2017-08-15T00:32:58.690Z,19.8
2017-08-15T00:33:59.474Z,19.8
2017-08-15T00:35:00.138Z,19.8
2017-08-15T00:36:00.904Z,19.7
2017-08-15T00:37:01.586Z,19.8
2017-08-15T00:38:02.367Z,19.7
2017-08-15T00:39:03.202Z,19.8
2017-08-15T00:40:03.946Z,19.7
2017-08-15T00:41:04.792Z,19.6
2017-08-15T00:42:05.514Z,19.5
2017-08-15T00:43:06.300Z,19.4
2017-08-15T00:44:07.008Z,19.4
2017-08-15T00:45:07.887Z,19.4
2017-08-15T00:46:08.705Z,19.3
2017-08-15T00:47:09.384Z,19.3
2017-08-15T00:48:10.152Z,19.3
2017-08-15T00:49:10.930Z,19.4
2017-08-15T00:50:11.647Z,19.4
2017-08-15T00:51:12.372Z,19.3
2017-08-15T00:52:13.155Z,19.3
2017-08-15T00:54:29.437Z,19.3
2017-08-15T00:55:30.146Z,19.3
2017-08-15T00:56:30.878Z,19.3
2017-08-15T00:57:31.712Z,19.3
2017-08-15T00:58:32.418Z,19.3
2017-08-15T00:59:33.175Z,19.3
2017-08-15T01:00:33.993Z,19.2
2017-08-15T01:01:34.761Z,19.3
2017-08-15T01:02:35.978Z,19.2
2017-08-15T01:03:36.664Z,19.3
2017-08-15T01:04:37.796Z,19.2
2017-08-15T01:05:38.471Z,19.2
2017-08-15T01:06:39.196Z,19.4
2017-08-15T01:07:39.913Z,19.3
2017-08-15T01:08:40.656Z,19.1
2017-08-15T01:09:41.407Z,19.2
2017-08-15T01:10:42.133Z,19.3
2017-08-15T01:11:43.260Z,19.3
2017-08-15T01:12:43.985Z,19.3
2017-08-15T01:13:44.766Z,19.3
2017-08-15T01:14:45.574Z,19.2
2017-08-15T01:15:46.293Z,19.1
2017-08-15T01:16:47.094Z,19.0
2017-08-15T01:17:47.813Z,19.1
2017-08-15T01:18:48.569Z,19.1
2017-08-15T01:19:49.285Z,19.1
2017-08-15T01:20:50.007Z,19.1
2017-08-15T01:21:50.686Z,19.0
2017-08-15T01:22:51.398Z,19.0
2017-08-15T01:23:52.505Z,19.1
2017-08-15T01:24:53.318Z,19.0
2017-08-15T01:25:53.991Z,19.0
2017-08-15T01:26:54.698Z,19.0
2017-08-15T01:27:55.425Z,18.9
2017-08-15T01:28:56.124Z,19.1
2017-08-15T01:29:56.847Z,19.0
2017-08-15T01:30:57.609Z,18.9
2017-08-15T01:31:58.355Z,18.9
2017-08-15T01:32:59.033Z,18.8
2017-08-15T01:33:59.948Z,18.9
2017-08-15T01:35:00.729Z,18.8
2017-08-15T01:36:01.523Z,18.8
2017-08-15T01:37:02.238Z,18.8
2017-08-15T01:38:02.969Z,18.8
2017-08-15T01:39:03.744Z,18.7
2017-08-15T01:40:04.449Z,18.7
2017-08-15T01:41:05.146Z,18.7
2017-08-15T01:42:05.975Z,18.7
2017-08-15T01:43:06.678Z,18.7
2017-08-15T01:44:07.418Z,18.7
2017-08-15T01:45:08.123Z,18.7
2017-08-15T01:46:08.825Z,18.6
2017-08-15T01:47:09.571Z,18.7
2017-08-15T01:48:10.395Z,18.7
2017-08-15T01:49:11.077Z,18.5
2017-08-15T01:50:11.892Z,18.6
2017-08-15T01:51:12.712Z,18.6
2017-08-15T01:52:13.478Z,18.6
2017-08-15T01:53:14.246Z,18.6
2017-08-15T01:54:15.039Z,18.7
2017-08-15T01:55:15.757Z,18.6
2017-08-15T01:56:16.792Z,18.5
2017-08-15T01:57:17.537Z,18.5
2017-08-15T01:58:18.232Z,18.5
2017-08-15T01:59:18.993Z,18.4
2017-08-15T02:00:19.731Z,18.3
2017-08-15T02:01:20.547Z,18.4
2017-08-15T02:02:21.233Z,18.3
2017-08-15T02:03:21.951Z,18.4
2017-08-15T02:04:22.682Z,18.4
2017-08-15T02:05:23.431Z,18.5
2017-08-15T02:06:24.169Z,18.4
2017-08-15T02:07:24.930Z,18.4
2017-08-15T02:08:25.623Z,18.4
2017-08-15T02:09:26.360Z,18.3
2017-08-15T02:10:27.070Z,18.3
2017-08-15T02:11:27.831Z,18.3
2017-08-15T02:12:28.567Z,18.4
2017-08-15T02:13:29.238Z,18.4
2017-08-15T02:14:30.111Z,18.4
2017-08-15T02:15:30.850Z,18.3
2017-08-15T02:16:31.518Z,18.3
2017-08-15T02:17:32.262Z,18.3
2017-08-15T02:18:32.973Z,18.3
2017-08-15T02:19:33.711Z,18.1
2017-08-15T02:20:34.450Z,18.2
2017-08-15T02:21:35.225Z,18.1
2017-08-15T02:22:36.019Z,18.1
2017-08-15T02:23:36.761Z,18.1
2017-08-15T02:24:37.497Z,18.2
2017-08-15T02:25:38.274Z,18.2
2017-08-15T02:26:38.979Z,18.3
2017-08-15T02:27:39.739Z,18.3
2017-08-15T02:28:40.454Z,18.3
2017-08-15T02:29:41.152Z,18.3
2017-08-15T02:30:41.946Z,18.3
2017-08-15T02:31:42.637Z,18.3
2017-08-15T02:32:43.367Z,18.3
2017-08-15T02:33:44.092Z,18.3
2017-08-15T02:34:44.868Z,18.3
2017-08-15T02:35:45.621Z,18.4
2017-08-15T02:36:46.284Z,18.4
2017-08-15T02:37:47.000Z,18.4
2017-08-15T02:38:47.820Z,18.6
2017-08-15T02:39:48.474Z,18.6
2017-08-15T02:40:49.189Z,18.6
2017-08-15T02:41:49.957Z,18.6
2017-08-15T02:42:50.724Z,18.6
2017-08-15T02:43:51.472Z,18.6
2017-08-15T02:44:52.201Z,18.7
2017-08-15T02:45:52.915Z,18.6
2017-08-15T02:46:53.716Z,18.7
2017-08-15T02:47:54.468Z,18.7
2017-08-15T02:48:55.157Z,18.8
2017-08-15T02:49:55.869Z,18.8
2017-08-15T02:50:56.635Z,18.8
2017-08-15T02:51:57.400Z,18.8
2017-08-15T02:52:58.112Z,18.9
2017-08-15T02:53:58.831Z,18.8
2017-08-15T02:55:00.237Z,18.8
2017-08-15T02:56:01.051Z,18.8
2017-08-15T02:57:01.755Z,18.8
2017-08-15T02:58:02.529Z,18.8
2017-08-15T02:59:03.289Z,18.8
2017-08-15T03:00:03.971Z,18.8
2017-08-15T03:01:04.690Z,18.9
2017-08-15T03:02:05.416Z,18.9
2017-08-15T03:03:06.198Z,18.9
2017-08-15T03:04:06.928Z,18.9
2017-08-15T03:05:07.638Z,19.1
2017-08-15T03:06:08.339Z,19.0
2017-08-15T03:07:09.214Z,19.0
2017-08-15T03:08:09.972Z,19.1
2017-08-15T03:09:10.711Z,19.0
2017-08-15T03:10:11.514Z,19.1
2017-08-15T03:11:12.218Z,19.0
2017-08-15T03:12:12.973Z,19.1
2017-08-15T03:13:13.671Z,19.0
2017-08-15T03:14:14.385Z,19.0
2017-08-15T03:15:15.574Z,19.0
2017-08-15T03:16:16.266Z,18.9
2017-08-15T03:17:16.990Z,19.0
2017-08-15T03:18:17.754Z,19.0
2017-08-15T03:19:18.500Z,19.0
2017-08-15T03:20:19.251Z,19.1
2017-08-15T03:21:19.974Z,19.1
2017-08-15T03:22:20.740Z,19.0
2017-08-15T03:23:21.540Z,19.1
2017-08-15T03:24:22.291Z,19.0
2017-08-15T03:25:22.975Z,19.2
2017-08-15T03:26:23.720Z,19.1
2017-08-15T03:27:24.473Z,19.1
2017-08-15T03:28:25.219Z,19.2
2017-08-15T03:29:25.933Z,19.2
2017-08-15T03:30:26.903Z,19.2
2017-08-15T03:31:27.587Z,19.2
2017-08-15T03:32:28.290Z,19.1
2017-08-15T03:33:29.083Z,19.1
2017-08-15T03:34:29.791Z,19.1
2017-08-15T03:35:30.527Z,19.1
2017-08-15T03:36:31.245Z,19.1
2017-08-15T03:37:32.017Z,19.1
2017-08-15T03:38:32.803Z,19.1
2017-08-15T03:39:33.537Z,19.1
2017-08-15T03:40:34.329Z,19.1
2017-08-15T03:41:35.081Z,19.0
2017-08-15T03:42:35.750Z,19.1
2017-08-15T03:43:36.529Z,19.1
2017-08-15T03:44:37.258Z,19.1
2017-08-15T03:45:38.175Z,19.2
2017-08-15T03:46:38.881Z,19.2
2017-08-15T03:47:39.615Z,19.2
2017-08-15T03:48:40.399Z,19.2
2017-08-15T03:49:41.114Z,19.3
2017-08-15T03:50:41.911Z,19.2
2017-08-15T03:51:42.619Z,19.3
2017-08-15T03:52:43.371Z,19.3
2017-08-15T03:54:59.714Z,19.3
2017-08-15T03:56:00.398Z,19.3
2017-08-15T03:57:01.128Z,19.4
2017-08-15T03:58:01.832Z,19.3
2017-08-15T03:59:02.560Z,19.3
2017-08-15T04:00:03.262Z,19.4
2017-08-15T04:01:03.992Z,19.4
2017-08-15T04:02:04.733Z,19.5
2017-08-15T04:03:05.506Z,19.6
2017-08-15T04:04:06.285Z,19.6
2017-08-15T04:05:06.984Z,19.6
2017-08-15T04:06:07.741Z,19.5
2017-08-15T04:07:08.440Z,19.5
2017-08-15T04:08:09.150Z,19.6
2017-08-15T04:09:09.876Z,19.6
2017-08-15T04:10:10.664Z,19.5
2017-08-15T04:11:11.333Z,19.5
2017-08-15T04:12:12.054Z,19.5
2017-08-15T04:13:12.794Z,19.7
2017-08-15T04:14:13.503Z,19.8
2017-08-15T04:15:14.282Z,19.8
2017-08-15T04:16:15.043Z,20.0
2017-08-15T04:17:15.718Z,20.2
2017-08-15T04:18:16.435Z,20.3
2017-08-15T04:19:17.199Z,20.4
2017-08-15T04:20:17.933Z,20.6
2017-08-15T04:21:18.692Z,20.8
2017-08-15T04:22:19.388Z,20.9
2017-08-15T04:23:20.143Z,21.1
2017-08-15T04:24:20.878Z,21.3
2017-08-15T04:25:21.556Z,21.4
2017-08-15T04:27:37.837Z,21.8
2017-08-15T04:28:38.559Z,21.9
2017-08-15T04:29:39.307Z,22.0
2017-08-15T04:30:40.100Z,22.3
2017-08-15T04:31:40.767Z,22.3
2017-08-15T04:32:41.534Z,22.3
2017-08-15T04:33:42.251Z,22.3
2017-08-15T04:34:42.980Z,22.5
2017-08-15T04:35:43.774Z,22.9
2017-08-15T04:36:44.496Z,22.9
2017-08-15T04:37:45.219Z,23.1
2017-08-15T04:38:45.939Z,23.2
2017-08-15T04:39:46.669Z,23.3
2017-08-15T04:40:47.509Z,23.2
2017-08-15T04:41:48.268Z,23.1
2017-08-15T04:42:48.996Z,22.9
2017-08-15T04:43:49.716Z,22.8
2017-08-15T04:44:50.447Z,22.6
2017-08-15T04:45:51.219Z,22.5
2017-08-15T04:46:51.935Z,22.5
2017-08-15T04:47:52.673Z,22.4
2017-08-15T04:48:53.433Z,22.3
2017-08-15T04:49:54.125Z,22.3
2017-08-15T04:50:54.882Z,22.3
2017-08-15T04:53:11.151Z,22.3
2017-08-15T04:54:11.876Z,22.6
2017-08-15T04:55:12.668Z,22.5
2017-08-15T04:56:13.562Z,22.4
2017-08-15T04:57:14.305Z,22.3
2017-08-15T04:58:15.022Z,22.3
2017-08-15T04:59:15.726Z,22.4
2017-08-15T05:00:16.507Z,22.6
2017-08-15T05:01:17.334Z,23.0
2017-08-15T05:02:18.131Z,23.5
2017-08-15T05:03:19.523Z,23.7
2017-08-15T05:04:20.275Z,24.1
2017-08-15T05:05:21.265Z,24.0
2017-08-15T05:06:22.306Z,23.6
2017-08-15T05:07:23.022Z,23.4
2017-08-15T05:08:23.745Z,23.2
2017-08-15T05:09:24.465Z,23.2
2017-08-15T05:10:25.592Z,23.8
2017-08-15T05:11:26.273Z,24.2
2017-08-15T05:12:26.976Z,24.8
2017-08-15T05:13:28.073Z,25.3
2017-08-15T05:14:28.732Z,25.5
2017-08-15T05:15:29.427Z,25.8
2017-08-15T05:16:30.172Z,26.2
2017-08-15T05:17:30.920Z,26.4
2017-08-15T05:18:31.754Z,26.8
2017-08-15T05:19:32.406Z,27.0
2017-08-15T05:20:33.214Z,27.1
2017-08-15T05:21:34.017Z,27.3
2017-08-15T05:22:34.719Z,27.6
2017-08-15T05:23:35.482Z,27.8
2017-08-15T05:24:36.245Z,28.0
2017-08-15T05:25:36.976Z,28.1
2017-08-15T05:26:37.756Z,27.7
2017-08-15T05:27:38.508Z,27.5
2017-08-15T05:28:39.253Z,27.1
2017-08-15T05:29:40.078Z,26.9
2017-08-15T05:30:40.863Z,26.7
2017-08-15T05:31:41.526Z,26.5
2017-08-15T05:32:42.303Z,26.1
2017-08-15T05:33:43.047Z,25.8
2017-08-15T05:34:44.047Z,25.9
2017-08-15T05:35:44.831Z,26.1
2017-08-15T05:36:45.608Z,26.3
2017-08-15T05:37:46.351Z,26.5
2017-08-15T05:38:47.113Z,26.4
2017-08-15T05:39:47.907Z,26.4
2017-08-15T05:40:48.595Z,26.0
2017-08-15T05:41:49.354Z,25.6
2017-08-15T05:42:50.203Z,25.6
2017-08-15T05:43:50.917Z,25.4
2017-08-15T05:44:51.667Z,25.5
2017-08-15T05:45:52.401Z,25.3
2017-08-15T05:46:53.111Z,25.2
2017-08-15T05:47:53.827Z,25.1
2017-08-15T05:48:54.630Z,24.9
2017-08-15T05:49:56.124Z,24.7
2017-08-15T05:50:56.783Z,24.5
2017-08-15T05:51:57.531Z,24.4
2017-08-15T05:52:58.278Z,24.1
2017-08-15T05:53:59.385Z,24.0
2017-08-15T05:55:00.083Z,24.0
2017-08-15T05:56:00.748Z,23.9
2017-08-15T05:57:01.513Z,23.8
2017-08-15T05:58:02.253Z,23.7
2017-08-15T05:59:02.972Z,23.6
2017-08-15T06:00:03.823Z,23.9
2017-08-15T06:01:04.547Z,24.1
2017-08-15T06:02:05.279Z,24.4
2017-08-15T06:03:06.049Z,24.8
2017-08-15T06:04:06.891Z,25.0
2017-08-15T06:05:07.708Z,25.0
2017-08-15T06:06:08.464Z,25.0
2017-08-15T06:07:09.639Z,24.9
2017-08-15T06:08:10.329Z,24.9
2017-08-15T06:09:11.061Z,24.7
2017-08-15T06:10:11.851Z,24.3
2017-08-15T06:11:13.029Z,24.2
2017-08-15T06:12:13.756Z,24.0
2017-08-15T06:13:14.528Z,23.9
2017-08-15T06:14:15.272Z,23.9
2017-08-15T06:15:16.125Z,23.9
2017-08-15T06:16:16.865Z,23.8
2017-08-15T06:17:17.807Z,23.9
2017-08-15T06:18:18.598Z,23.7
2017-08-15T06:19:19.426Z,23.5
2017-08-15T06:20:20.634Z,23.5
2017-08-15T06:21:21.410Z,23.7
2017-08-15T06:22:22.098Z,23.8
2017-08-15T06:23:22.916Z,23.7
2017-08-15T06:24:23.745Z,23.7
2017-08-15T06:25:24.469Z,23.7
2017-08-15T06:26:25.238Z,23.7
2017-08-15T06:27:25.924Z,23.7
2017-08-15T06:28:26.684Z,23.7
2017-08-15T06:29:27.384Z,23.7
2017-08-15T06:30:28.149Z,23.7
2017-08-15T06:31:28.855Z,23.7
2017-08-15T06:32:29.633Z,23.9
2017-08-15T06:33:30.383Z,23.8
2017-08-15T06:34:31.087Z,23.9
2017-08-15T06:35:31.815Z,23.8
2017-08-15T06:36:32.554Z,23.7
2017-08-15T06:37:33.310Z,23.6
2017-08-15T06:38:34.211Z,23.5
2017-08-15T06:39:35.194Z,23.3
2017-08-15T06:42:49.072Z,23.4
2017-08-15T06:44:51.716Z,23.4
2017-08-15T06:45:52.485Z,23.4
2017-08-15T06:46:53.241Z,23.3
2017-08-15T06:47:54.088Z,23.2
2017-08-15T06:48:54.747Z,23.3
2017-08-15T06:49:55.455Z,23.2
2017-08-15T06:50:56.189Z,23.2
2017-08-15T06:51:56.918Z,23.2
2017-08-15T06:52:57.587Z,23.3
2017-08-15T06:53:58.817Z,23.4
2017-08-15T06:54:59.497Z,23.4
2017-08-15T06:56:00.354Z,23.7
2017-08-15T06:57:01.111Z,23.6
2017-08-15T06:58:01.827Z,23.5
2017-08-15T06:59:02.561Z,23.5
2017-08-15T07:00:03.359Z,23.5
2017-08-15T07:01:04.091Z,23.4
2017-08-15T07:02:04.861Z,23.4
2017-08-15T07:03:05.654Z,23.3
2017-08-15T07:04:06.415Z,23.4
2017-08-15T07:05:07.134Z,23.5
2017-08-15T07:06:07.856Z,23.5
2017-08-15T07:07:08.784Z,23.4
2017-08-15T07:08:09.685Z,23.4
2017-08-15T07:09:10.400Z,23.3
2017-08-15T07:10:11.104Z,23.3
2017-08-15T07:11:11.892Z,23.3
2017-08-15T07:12:12.562Z,23.3
2017-08-15T07:13:13.352Z,23.4
2017-08-15T07:14:14.075Z,23.5
2017-08-15T07:15:15.291Z,23.5
2017-08-15T07:16:17.006Z,23.4
2017-08-15T07:17:17.911Z,23.5
2017-08-15T07:18:18.777Z,23.5
2017-08-15T07:19:19.765Z,23.5
2017-08-15T07:20:20.519Z,23.5
2017-08-15T07:21:21.236Z,23.5
2017-08-15T07:22:22.238Z,23.6
2017-08-15T07:23:22.948Z,23.6
2017-08-15T07:24:23.705Z,23.6
2017-08-15T07:25:24.849Z,23.7
2017-08-15T07:26:25.588Z,23.8
2017-08-15T07:27:26.299Z,23.8
2017-08-15T07:28:27.223Z,23.8
2017-08-15T07:29:28.033Z,23.8
2017-08-15T07:30:28.824Z,23.9
2017-08-15T07:31:29.553Z,23.8
2017-08-15T07:32:30.611Z,23.8
2017-08-15T07:33:31.501Z,23.9
2017-08-15T07:34:32.234Z,24.1
2017-08-15T07:35:33.023Z,24.2
2017-08-15T07:36:33.989Z,24.2
2017-08-15T07:37:34.742Z,24.3
2017-08-15T07:38:35.544Z,24.5
2017-08-15T07:39:36.249Z,24.5
2017-08-15T07:40:37.121Z,24.7
2017-08-15T07:41:37.839Z,24.8
2017-08-15T07:42:38.565Z,24.9
2017-08-15T07:43:39.295Z,24.9
2017-08-15T07:44:40.046Z,25.1
2017-08-15T07:45:41.098Z,25.1
2017-08-15T07:46:42.002Z,25.0
2017-08-15T07:47:42.725Z,24.8
2017-08-15T07:48:43.556Z,24.7
2017-08-15T07:49:44.324Z,24.7
2017-08-15T07:50:45.168Z,24.7
2017-08-15T07:51:45.978Z,24.9
2017-08-15T07:52:47.415Z,25.1
2017-08-15T07:53:49.283Z,25.2
2017-08-15T07:54:50.044Z,25.2
2017-08-15T07:55:50.890Z,25.3
2017-08-15T07:56:51.599Z,25.1
2017-08-15T07:57:52.470Z,25.0
2017-08-15T07:58:53.214Z,25.1
2017-08-15T07:59:54.055Z,25.1
2017-08-15T08:00:54.886Z,25.1
2017-08-15T08:01:55.911Z,25.2
2017-08-15T08:02:56.722Z,25.2
2017-08-15T08:03:57.451Z,25.2
2017-08-15T08:04:58.593Z,25.2
2017-08-15T08:05:59.315Z,25.2
2017-08-15T08:07:00.116Z,25.2
2017-08-15T08:08:01.243Z,25.0
2017-08-15T08:09:01.932Z,25.1
2017-08-15T08:10:02.857Z,25.1
2017-08-15T08:11:03.569Z,25.1
2017-08-15T08:12:04.395Z,25.1
2017-08-15T08:13:05.193Z,25.2
2017-08-15T08:14:05.983Z,25.2
2017-08-15T08:15:07.202Z,25.3
2017-08-15T08:16:08.327Z,25.6
2017-08-15T08:17:09.098Z,25.5
2017-08-15T08:18:10.072Z,25.6
2017-08-15T08:19:12.383Z,25.7
2017-08-15T08:20:13.172Z,25.7
2017-08-15T08:22:29.537Z,25.9
2017-08-15T08:23:30.382Z,26.1
2017-08-15T08:24:31.102Z,26.2
2017-08-15T08:25:31.999Z,26.3
2017-08-15T08:26:32.714Z,26.4
2017-08-15T08:27:33.444Z,26.7
2017-08-15T08:28:34.221Z,27.2
2017-08-15T08:29:35.010Z,27.5
2017-08-15T08:30:36.227Z,28.0
2017-08-15T08:31:36.896Z,28.5
2017-08-15T08:32:37.629Z,29.0
2017-08-15T08:33:38.831Z,29.5
2017-08-15T08:34:39.538Z,30.0
2017-08-15T08:35:40.367Z,30.1
2017-08-15T08:36:41.215Z,30.4
2017-08-15T08:37:42.145Z,30.9
2017-08-15T08:38:42.893Z,31.4
2017-08-15T08:39:43.619Z,31.8
2017-08-15T08:40:44.598Z,32.5
2017-08-15T08:41:45.359Z,33.1
2017-08-15T08:42:46.160Z,33.6
2017-08-15T08:43:46.900Z,34.1
2017-08-15T08:44:47.747Z,34.5
2017-08-15T08:45:48.621Z,34.7
2017-08-15T08:46:49.660Z,34.4
2017-08-15T08:47:50.491Z,34.4
2017-08-15T08:48:51.894Z,34.1
2017-08-15T08:49:52.672Z,33.8
2017-08-15T08:50:53.615Z,33.8
2017-08-15T08:53:10.116Z,33.8
2017-08-15T08:54:10.839Z,33.5
2017-08-15T08:56:27.831Z,33.3
2017-08-15T08:57:28.662Z,33.2
2017-08-15T08:58:29.498Z,33.2
2017-08-15T08:59:30.446Z,33.2
2017-08-15T09:00:31.239Z,33.3
2017-08-15T09:01:32.338Z,33.6
2017-08-15T09:02:33.635Z,34.0
2017-08-15T09:03:34.395Z,34.4
2017-08-15T09:04:35.448Z,34.4
2017-08-15T09:05:36.194Z,34.9
2017-08-15T09:06:36.996Z,35.1
2017-08-15T09:07:37.764Z,35.5
2017-08-15T09:08:43.561Z,35.8
2017-08-15T09:09:44.290Z,36.1
2017-08-15T09:10:45.160Z,36.1
2017-08-15T09:11:46.268Z,36.4
2017-08-15T09:12:46.971Z,35.9
2017-08-15T09:13:47.823Z,35.4
2017-08-15T09:14:48.552Z,34.6
2017-08-15T09:15:49.302Z,34.4
2017-08-15T09:16:50.433Z,34.7
2017-08-15T09:17:51.218Z,34.7
2017-08-15T09:18:52.124Z,34.8
2017-08-15T09:19:53.033Z,35.1
2017-08-15T09:20:53.777Z,34.7
2017-08-15T09:21:54.459Z,34.1
2017-08-15T09:22:55.284Z,33.8
2017-08-15T09:23:56.103Z,33.5
2017-08-15T09:24:57.114Z,33.7
2017-08-15T09:27:18.438Z,34.0
2017-08-15T09:28:19.302Z,34.2
2017-08-15T09:29:20.070Z,33.9
2017-08-15T09:30:20.816Z,33.8
2017-08-15T09:31:21.615Z,33.4
2017-08-15T09:32:22.408Z,33.4
2017-08-15T09:33:23.151Z,33.1
2017-08-15T09:34:23.906Z,33.1
2017-08-15T09:35:24.647Z,33.2
2017-08-15T09:36:30.442Z,33.3
2017-08-15T09:37:31.203Z,33.3
2017-08-15T09:38:32.042Z,33.4
2017-08-15T09:39:33.095Z,33.3
2017-08-15T09:40:33.907Z,33.1
2017-08-15T09:41:35.100Z,32.9
2017-08-15T09:42:35.827Z,32.9
2017-08-15T09:43:36.853Z,32.9
2017-08-15T09:44:37.576Z,32.6
2017-08-15T09:45:38.550Z,32.6
2017-08-15T09:46:39.385Z,32.6
2017-08-15T09:47:40.128Z,32.4
2017-08-15T09:48:41.119Z,32.1
2017-08-15T09:49:41.874Z,31.9
2017-08-15T09:50:42.949Z,31.7
2017-08-15T09:51:48.742Z,31.4
2017-08-15T09:52:49.557Z,31.2
2017-08-15T09:53:50.305Z,31.2
2017-08-15T09:54:51.257Z,31.4
2017-08-15T09:55:52.411Z,31.3
2017-08-15T09:56:53.219Z,31.4
2017-08-15T09:57:54.062Z,31.3
2017-08-15T09:58:54.801Z,30.9
2017-08-15T09:59:55.670Z,31.0
2017-08-15T10:00:56.552Z,31.3
2017-08-15T10:01:57.730Z,31.3
2017-08-15T10:02:58.480Z,31.3
2017-08-15T10:03:59.179Z,31.4
2017-08-15T10:04:59.952Z,31.5
2017-08-15T10:06:00.664Z,31.4
2017-08-15T10:07:01.373Z,31.4
2017-08-15T10:08:02.249Z,31.4
2017-08-15T10:09:08.005Z,31.4
2017-08-15T10:10:08.728Z,31.3
2017-08-15T10:11:09.469Z,31.2
2017-08-15T10:12:10.218Z,30.9
2017-08-15T10:13:10.940Z,30.8
2017-08-15T10:14:11.722Z,30.8
2017-08-15T10:15:12.490Z,30.9
2017-08-15T10:16:13.228Z,31.1
2017-08-15T10:17:13.979Z,31.2
2017-08-15T10:18:14.808Z,31.5
2017-08-15T10:19:15.562Z,31.6
2017-08-15T10:20:16.293Z,31.9
2017-08-15T10:21:17.009Z,31.8
2017-08-15T10:22:18.220Z,31.3
2017-08-15T10:23:18.944Z,31.4
2017-08-15T10:24:19.872Z,31.3
2017-08-15T10:25:20.762Z,31.1
2017-08-15T10:26:21.511Z,31.0
2017-08-15T10:27:22.298Z,30.9
2017-08-15T10:28:23.162Z,30.7
2017-08-15T10:29:23.917Z,30.6
2017-08-15T10:30:24.733Z,30.6
2017-08-15T10:31:25.608Z,30.6
2017-08-15T10:32:26.651Z,30.7
2017-08-15T10:33:27.499Z,30.8
2017-08-15T10:34:28.396Z,30.9
2017-08-15T10:35:29.075Z,31.0
2017-08-15T10:36:30.457Z,31.0
2017-08-15T10:37:31.491Z,31.1
2017-08-15T10:38:32.395Z,31.2
2017-08-15T10:39:33.104Z,31.3
2017-08-15T10:40:33.874Z,31.4
2017-08-15T10:41:34.723Z,31.5
2017-08-15T10:42:35.431Z,31.6
2017-08-15T10:43:36.178Z,31.6
2017-08-15T10:44:36.871Z,31.6
2017-08-15T10:45:38.254Z,31.7
2017-08-15T10:46:39.095Z,31.8
2017-08-15T10:47:40.368Z,31.9
2017-08-15T10:48:41.044Z,31.9
2017-08-15T10:49:41.840Z,31.9
2017-08-15T10:50:42.617Z,31.9
2017-08-15T10:51:44.034Z,31.8
2017-08-15T10:52:44.763Z,31.7
2017-08-15T10:53:45.514Z,31.7
2017-08-15T10:54:46.365Z,31.7
2017-08-15T10:55:47.139Z,31.8
2017-08-15T10:56:47.929Z,31.7
2017-08-15T10:57:48.662Z,31.6
2017-08-15T10:58:49.386Z,31.3
2017-08-15T10:59:50.175Z,31.6
2017-08-15T11:00:51.054Z,31.5
2017-08-15T11:01:51.885Z,31.5
2017-08-15T11:02:52.703Z,31.3
2017-08-15T11:03:53.444Z,31.3
2017-08-15T11:04:54.227Z,31.2
2017-08-15T11:05:55.029Z,31.1
2017-08-15T11:06:56.219Z,31.0
2017-08-15T11:07:57.235Z,31.0
2017-08-15T11:08:58.256Z,31.0
2017-08-15T11:09:59.375Z,31.0
2017-08-15T11:11:00.158Z,31.0
2017-08-15T11:12:00.998Z,30.9
2017-08-15T11:13:01.798Z,31.0
2017-08-15T11:14:02.595Z,30.8
2017-08-15T11:15:03.703Z,30.8
2017-08-15T11:16:04.731Z,30.9
2017-08-15T11:17:05.685Z,30.9
2017-08-15T11:18:06.555Z,31.0
2017-08-15T11:19:07.321Z,31.1
2017-08-15T11:20:08.065Z,31.1
2017-08-15T11:21:09.109Z,31.2
2017-08-15T11:22:09.811Z,31.1
2017-08-15T11:23:10.732Z,31.2
2017-08-15T11:24:11.466Z,31.2
2017-08-15T11:25:12.746Z,31.2
2017-08-15T11:26:13.469Z,31.2
2017-08-15T11:27:14.356Z,31.2
2017-08-15T11:28:15.164Z,31.2
2017-08-15T11:29:15.973Z,31.1
2017-08-15T11:30:16.999Z,31.1
2017-08-15T11:31:17.803Z,31.0
2017-08-15T11:32:18.934Z,31.0
2017-08-15T11:33:19.730Z,31.0
2017-08-15T11:34:20.414Z,31.1
2017-08-15T11:35:21.280Z,31.2
2017-08-15T11:36:22.010Z,31.4
2017-08-15T11:37:23.234Z,31.4
2017-08-15T11:38:23.967Z,31.5
2017-08-15T11:39:24.784Z,31.5
2017-08-15T11:40:25.602Z,31.5
2017-08-15T11:41:26.331Z,31.7
2017-08-15T11:42:27.086Z,31.7
2017-08-15T11:43:28.007Z,31.7
2017-08-15T11:44:28.757Z,31.8
2017-08-15T11:45:29.619Z,31.8
2017-08-15T11:46:30.367Z,31.8
2017-08-15T11:47:31.101Z,31.9
2017-08-15T11:48:31.840Z,31.9
2017-08-15T11:49:32.658Z,31.8
2017-08-15T11:50:33.395Z,31.9
2017-08-15T11:51:34.170Z,31.9
2017-08-15T11:52:35.134Z,32.0
2017-08-15T11:53:35.937Z,32.2
2017-08-15T11:54:36.873Z,32.1
2017-08-15T11:55:37.694Z,32.1
2017-08-15T11:56:38.493Z,32.1
2017-08-15T11:57:39.493Z,32.1
2017-08-15T11:58:40.218Z,32.1
2017-08-15T11:59:41.138Z,31.9
2017-08-15T12:00:42.174Z,31.9
2017-08-15T12:01:43.357Z,32.0
2017-08-15T12:02:44.260Z,31.8
2017-08-15T12:03:44.984Z,31.8
2017-08-15T12:04:45.921Z,31.7
2017-08-15T12:05:46.618Z,31.8
2017-08-15T12:06:47.422Z,31.9
2017-08-15T12:07:48.450Z,31.9
2017-08-15T12:08:49.256Z,31.8
2017-08-15T12:09:49.927Z,31.7
2017-08-15T12:10:50.830Z,31.8
2017-08-15T12:11:51.748Z,31.8
2017-08-15T12:12:52.560Z,31.8
2017-08-15T12:13:53.283Z,31.8
2017-08-15T12:14:54.046Z,32.0
2017-08-15T12:15:55.363Z,32.0
2017-08-15T12:16:56.223Z,32.0
2017-08-15T12:17:56.970Z,32.1
2017-08-15T12:18:58.349Z,32.2
2017-08-15T12:19:59.185Z,32.3
2017-08-15T12:20:59.934Z,32.1
2017-08-15T12:22:02.583Z,32.2
2017-08-15T12:23:03.306Z,32.1
2017-08-15T12:24:04.119Z,32.1
2017-08-15T12:25:04.992Z,32.2
2017-08-15T12:26:05.866Z,32.2
2017-08-15T12:27:06.692Z,32.2
2017-08-15T12:28:07.585Z,32.1
2017-08-15T12:29:08.379Z,32.2
2017-08-15T12:30:09.216Z,32.2
2017-08-15T12:31:10.055Z,32.2
2017-08-15T12:32:10.886Z,32.3
2017-08-15T12:33:11.870Z,32.4
2017-08-15T12:34:12.616Z,32.4
2017-08-15T12:35:13.523Z,32.5
2017-08-15T12:36:14.627Z,32.5
2017-08-15T12:37:15.442Z,32.5
2017-08-15T12:38:16.217Z,32.6
2017-08-15T12:39:17.017Z,32.6
2017-08-15T12:40:18.051Z,32.6
2017-08-15T12:41:19.109Z,32.7
2017-08-15T12:42:19.926Z,32.7
2017-08-15T12:43:20.691Z,32.8
2017-08-15T12:44:21.485Z,32.9
2017-08-15T12:45:22.348Z,32.9
2017-08-15T12:46:23.370Z,32.8
2017-08-15T12:47:24.329Z,32.6
2017-08-15T12:48:25.107Z,32.6
2017-08-15T12:49:25.887Z,32.6
2017-08-15T12:50:26.706Z,32.5
2017-08-15T12:51:27.586Z,32.5
2017-08-15T12:52:28.430Z,32.5
2017-08-15T12:53:29.295Z,32.5
2017-08-15T12:54:30.086Z,32.6
2017-08-15T12:55:30.887Z,32.6
2017-08-15T12:56:31.713Z,32.7
2017-08-15T12:57:32.597Z,32.7
2017-08-15T12:58:33.841Z,32.9
2017-08-15T12:59:34.872Z,32.9
2017-08-15T13:00:35.632Z,32.9
2017-08-15T13:01:36.450Z,32.9
2017-08-15T13:02:37.403Z,32.8
2017-08-15T13:03:38.193Z,32.9
2017-08-15T13:04:39.136Z,32.9
2017-08-15T13:05:40.032Z,32.8
2017-08-15T13:06:41.125Z,32.8
2017-08-15T13:07:42.006Z,32.7
2017-08-15T13:08:42.868Z,32.7
2017-08-15T13:09:43.729Z,32.6
2017-08-15T13:10:44.581Z,32.5
2017-08-15T13:11:45.324Z,32.4
2017-08-15T13:12:46.109Z,32.5
2017-08-15T13:13:46.885Z,32.6
2017-08-15T13:14:47.748Z,32.7
2017-08-15T13:15:48.712Z,32.7
2017-08-15T13:16:49.456Z,32.6
2017-08-15T13:17:50.228Z,32.6
2017-08-15T13:18:51.008Z,32.7
2017-08-15T13:19:51.797Z,32.7
2017-08-15T13:20:53.265Z,32.7
2017-08-15T13:21:54.779Z,32.7
2017-08-15T13:22:55.521Z,32.6
2017-08-15T13:23:56.356Z,32.6
2017-08-15T13:24:57.098Z,32.7
2017-08-15T13:25:57.865Z,32.6
2017-08-15T13:26:58.596Z,32.6
2017-08-15T13:27:59.390Z,32.6
2017-08-15T13:29:00.132Z,32.6
2017-08-15T13:30:00.965Z,32.6
2017-08-15T13:31:01.741Z,32.5
2017-08-15T13:32:02.566Z,32.6
2017-08-15T13:33:03.309Z,32.5
2017-08-15T13:34:04.184Z,32.6
2017-08-15T13:35:05.041Z,32.6
2017-08-15T13:36:06.017Z,32.6
2017-08-15T13:37:06.798Z,32.6
2017-08-15T13:38:07.555Z,32.6
2017-08-15T13:39:08.452Z,32.8
2017-08-15T13:40:09.233Z,32.7
2017-08-15T13:41:10.174Z,32.8
2017-08-15T13:42:10.980Z,32.9
2017-08-15T13:43:11.782Z,32.9